sensor_id;sensor_type;location;lat;lon;timestamp;P1;durP1;ratioP1;P2;durP2;ratioP2
14294;SDS011;7231;59.370;18.016;2022-09-16T00:01:07;2.30;;;0.82;;
14294;SDS011;7231;59.370;18.016;2022-09-16T00:03:37;0.77;;;0.50;;
14294;SDS011;7231;59.370;18.016;2022-09-16T00:06:12;0.73;;;0.50;;
14294;SDS011;7231;59.370;18.016;2022-09-16T00:08:44;2.60;;;0.68;;
14294;SDS011;7231;59.370;18.016;2022-09-16T00:11:13;0.70;;;0.60;;
14294;SDS011;7231;59.370;18.016;2022-09-16T00:13:41;1.40;;;0.47;;
14294;SDS011;7231;59.370;18.016;2022-09-16T00:16:10;0.77;;;0.50;;
14294;SDS011;7231;59.370;18.016;2022-09-16T00:18:40;1.33;;;0.50;;
14294;SDS011;7231;59.370;18.016;2022-09-16T00:21:10;0.60;;;0.60;;
14294;SDS011;7231;59.370;18.016;2022-09-16T00:23:38;0.82;;;0.63;;
14294;SDS011;7231;59.370;18.016;2022-09-16T00:26:06;0.80;;;0.60;;
14294;SDS011;7231;59.370;18.016;2022-09-16T00:28:34;1.20;;;0.68;;
14294;SDS011;7231;59.370;18.016;2022-09-16T00:31:02;2.00;;;0.60;;
14294;SDS011;7231;59.370;18.016;2022-09-16T00:33:30;1.60;;;0.60;;
14294;SDS011;7231;59.370;18.016;2022-09-16T00:36:08;0.60;;;0.60;;
14294;SDS011;7231;59.370;18.016;2022-09-16T00:38:39;0.57;;;0.52;;
14294;SDS011;7231;59.370;18.016;2022-09-16T00:41:07;0.65;;;0.65;;
14294;SDS011;7231;59.370;18.016;2022-09-16T00:43:47;1.17;;;0.80;;
14294;SDS011;7231;59.370;18.016;2022-09-16T00:46:17;0.60;;;0.50;;
14294;SDS011;7231;59.370;18.016;2022-09-16T00:48:48;3.15;;;0.90;;
14294;SDS011;7231;59.370;18.016;2022-09-16T00:51:17;0.63;;;0.63;;
14294;SDS011;7231;59.370;18.016;2022-09-16T00:53:48;1.73;;;0.82;;
14294;SDS011;7231;59.370;18.016;2022-09-16T00:56:23;1.13;;;0.80;;
14294;SDS011;7231;59.370;18.016;2022-09-16T00:58:54;0.95;;;0.82;;
14294;SDS011;7231;59.370;18.016;2022-09-16T01:01:29;1.35;;;0.98;;
14294;SDS011;7231;59.370;18.016;2022-09-16T01:03:59;1.02;;;0.77;;
14294;SDS011;7231;59.370;18.016;2022-09-16T01:06:33;0.85;;;0.85;;
14294;SDS011;7231;59.370;18.016;2022-09-16T01:09:05;1.63;;;1.10;;
14294;SDS011;7231;59.370;18.016;2022-09-16T01:11:33;2.05;;;1.08;;
14294;SDS011;7231;59.370;18.016;2022-09-16T01:14:01;1.45;;;1.00;;
14294;SDS011;7231;59.370;18.016;2022-09-16T01:16:49;1.95;;;1.23;;
14294;SDS011;7231;59.370;18.016;2022-09-16T01:19:40;1.20;;;1.10;;
14294;SDS011;7231;59.370;18.016;2022-09-16T01:22:30;1.08;;;1.08;;
14294;SDS011;7231;59.370;18.016;2022-09-16T01:25:16;1.60;;;1.30;;
14294;SDS011;7231;59.370;18.016;2022-09-16T01:28:02;1.30;;;1.20;;
14294;SDS011;7231;59.370;18.016;2022-09-16T01:30:53;1.30;;;1.20;;
14294;SDS011;7231;59.370;18.016;2022-09-16T01:33:32;1.30;;;1.20;;
14294;SDS011;7231;59.370;18.016;2022-09-16T01:36:11;2.72;;;1.30;;
14294;SDS011;7231;59.370;18.016;2022-09-16T01:38:55;1.77;;;1.20;;
14294;SDS011;7231;59.370;18.016;2022-09-16T01:41:36;1.63;;;1.15;;
14294;SDS011;7231;59.370;18.016;2022-09-16T01:44:13;1.25;;;1.15;;
14294;SDS011;7231;59.370;18.016;2022-09-16T01:46:56;1.55;;;1.10;;
14294;SDS011;7231;59.370;18.016;2022-09-16T01:49:33;3.50;;;1.20;;
14294;SDS011;7231;59.370;18.016;2022-09-16T01:52:12;1.50;;;1.10;;
14294;SDS011;7231;59.370;18.016;2022-09-16T01:54:47;1.58;;;1.17;;
14294;SDS011;7231;59.370;18.016;2022-09-16T01:57:20;1.15;;;1.05;;
14294;SDS011;7231;59.370;18.016;2022-09-16T01:59:55;1.10;;;1.10;;
14294;SDS011;7231;59.370;18.016;2022-09-16T02:02:30;2.08;;;0.90;;
14294;SDS011;7231;59.370;18.016;2022-09-16T02:05:03;1.25;;;1.00;;
14294;SDS011;7231;59.370;18.016;2022-09-16T02:07:36;1.88;;;1.17;;
14294;SDS011;7231;59.370;18.016;2022-09-16T02:10:09;1.10;;;1.00;;
14294;SDS011;7231;59.370;18.016;2022-09-16T02:12:43;1.40;;;1.10;;
14294;SDS011;7231;59.370;18.016;2022-09-16T02:15:16;1.60;;;1.05;;
14294;SDS011;7231;59.370;18.016;2022-09-16T02:17:50;1.98;;;1.00;;
14294;SDS011;7231;59.370;18.016;2022-09-16T02:20:24;1.20;;;0.93;;
14294;SDS011;7231;59.370;18.016;2022-09-16T02:22:55;1.77;;;1.00;;
14294;SDS011;7231;59.370;18.016;2022-09-16T02:25:28;1.90;;;0.98;;
14294;SDS011;7231;59.370;18.016;2022-09-16T02:28:01;2.15;;;0.93;;
14294;SDS011;7231;59.370;18.016;2022-09-16T02:30:33;1.60;;;0.90;;
14294;SDS011;7231;59.370;18.016;2022-09-16T02:33:04;1.48;;;1.02;;
14294;SDS011;7231;59.370;18.016;2022-09-16T02:35:36;1.33;;;1.10;;
14294;SDS011;7231;59.370;18.016;2022-09-16T02:38:06;1.85;;;0.98;;
14294;SDS011;7231;59.370;18.016;2022-09-16T02:40:40;1.10;;;1.00;;
14294;SDS011;7231;59.370;18.016;2022-09-16T02:43:14;1.10;;;1.00;;
14294;SDS011;7231;59.370;18.016;2022-09-16T02:45:44;0.98;;;0.98;;
14294;SDS011;7231;59.370;18.016;2022-09-16T02:48:19;1.23;;;0.98;;
14294;SDS011;7231;59.370;18.016;2022-09-16T02:50:59;0.95;;;0.95;;
14294;SDS011;7231;59.370;18.016;2022-09-16T02:53:35;1.10;;;1.00;;
14294;SDS011;7231;59.370;18.016;2022-09-16T02:56:12;1.60;;;0.80;;
14294;SDS011;7231;59.370;18.016;2022-09-16T02:58:46;1.02;;;1.00;;
14294;SDS011;7231;59.370;18.016;2022-09-16T03:01:14;2.75;;;1.02;;
14294;SDS011;7231;59.370;18.016;2022-09-16T03:03:45;1.63;;;1.30;;
14294;SDS011;7231;59.370;18.016;2022-09-16T03:06:18;2.20;;;1.27;;
14294;SDS011;7231;59.370;18.016;2022-09-16T03:08:47;1.00;;;0.95;;
14294;SDS011;7231;59.370;18.016;2022-09-16T03:11:22;1.83;;;1.27;;
14294;SDS011;7231;59.370;18.016;2022-09-16T03:14:10;2.08;;;1.73;;
14294;SDS011;7231;59.370;18.016;2022-09-16T03:16:49;3.05;;;1.60;;
14294;SDS011;7231;59.370;18.016;2022-09-16T03:19:30;1.80;;;1.70;;
14294;SDS011;7231;59.370;18.016;2022-09-16T03:22:12;2.22;;;1.88;;
14294;SDS011;7231;59.370;18.016;2022-09-16T03:24:53;2.90;;;1.90;;
14294;SDS011;7231;59.370;18.016;2022-09-16T03:27:31;1.90;;;1.70;;
14294;SDS011;7231;59.370;18.016;2022-09-16T03:30:05;2.30;;;2.10;;
14294;SDS011;7231;59.370;18.016;2022-09-16T03:32:36;4.00;;;2.03;;
14294;SDS011;7231;59.370;18.016;2022-09-16T03:35:10;2.40;;;2.20;;
14294;SDS011;7231;59.370;18.016;2022-09-16T03:37:44;4.53;;;2.60;;
14294;SDS011;7231;59.370;18.016;2022-09-16T03:40:14;3.65;;;2.40;;
14294;SDS011;7231;59.370;18.016;2022-09-16T03:42:45;3.17;;;2.88;;
14294;SDS011;7231;59.370;18.016;2022-09-16T03:45:14;3.38;;;3.08;;
14294;SDS011;7231;59.370;18.016;2022-09-16T03:47:43;7.57;;;3.10;;
14294;SDS011;7231;59.370;18.016;2022-09-16T03:50:14;3.40;;;2.90;;
14294;SDS011;7231;59.370;18.016;2022-09-16T03:52:42;4.25;;;3.63;;
14294;SDS011;7231;59.370;18.016;2022-09-16T03:55:10;4.45;;;3.45;;
14294;SDS011;7231;59.370;18.016;2022-09-16T03:57:41;4.00;;;3.25;;
14294;SDS011;7231;59.370;18.016;2022-09-16T04:00:09;3.33;;;3.03;;
14294;SDS011;7231;59.370;18.016;2022-09-16T04:02:38;3.55;;;3.22;;
14294;SDS011;7231;59.370;18.016;2022-09-16T04:05:06;6.20;;;3.58;;
14294;SDS011;7231;59.370;18.016;2022-09-16T04:07:36;3.72;;;2.95;;
14294;SDS011;7231;59.370;18.016;2022-09-16T04:10:05;3.05;;;2.70;;
14294;SDS011;7231;59.370;18.016;2022-09-16T04:12:34;3.63;;;2.85;;
14294;SDS011;7231;59.370;18.016;2022-09-16T04:15:02;2.75;;;2.50;;
14294;SDS011;7231;59.370;18.016;2022-09-16T04:17:30;4.95;;;2.90;;
14294;SDS011;7231;59.370;18.016;2022-09-16T04:19:58;3.55;;;2.85;;
14294;SDS011;7231;59.370;18.016;2022-09-16T04:22:26;4.30;;;2.58;;
14294;SDS011;7231;59.370;18.016;2022-09-16T04:24:57;3.05;;;2.75;;
14294;SDS011;7231;59.370;18.016;2022-09-16T04:27:25;3.83;;;3.20;;
14294;SDS011;7231;59.370;18.016;2022-09-16T04:29:53;3.40;;;3.10;;
14294;SDS011;7231;59.370;18.016;2022-09-16T04:32:21;3.78;;;3.00;;
14294;SDS011;7231;59.370;18.016;2022-09-16T04:34:49;4.45;;;2.90;;
14294;SDS011;7231;59.370;18.016;2022-09-16T04:37:17;5.38;;;3.38;;
14294;SDS011;7231;59.370;18.016;2022-09-16T04:39:45;6.88;;;3.33;;
14294;SDS011;7231;59.370;18.016;2022-09-16T04:42:14;5.15;;;3.47;;
14294;SDS011;7231;59.370;18.016;2022-09-16T04:44:42;3.55;;;3.25;;
14294;SDS011;7231;59.370;18.016;2022-09-16T04:47:13;4.72;;;3.50;;
14294;SDS011;7231;59.370;18.016;2022-09-16T04:49:41;3.92;;;3.20;;
14294;SDS011;7231;59.370;18.016;2022-09-16T04:52:09;3.65;;;3.25;;
14294;SDS011;7231;59.370;18.016;2022-09-16T04:54:37;3.90;;;3.50;;
14294;SDS011;7231;59.370;18.016;2022-09-16T04:57:05;3.72;;;3.42;;
14294;SDS011;7231;59.370;18.016;2022-09-16T04:59:34;4.40;;;3.30;;
14294;SDS011;7231;59.370;18.016;2022-09-16T05:02:02;3.50;;;3.20;;
14294;SDS011;7231;59.370;18.016;2022-09-16T05:04:30;3.47;;;2.90;;
14294;SDS011;7231;59.370;18.016;2022-09-16T05:06:58;4.10;;;3.30;;
14294;SDS011;7231;59.370;18.016;2022-09-16T05:09:26;3.50;;;3.20;;
14294;SDS011;7231;59.370;18.016;2022-09-16T05:11:54;6.30;;;3.78;;
14294;SDS011;7231;59.370;18.016;2022-09-16T05:14:22;3.97;;;3.10;;
14294;SDS011;7231;59.370;18.016;2022-09-16T05:16:51;3.92;;;3.17;;
14294;SDS011;7231;59.370;18.016;2022-09-16T05:19:19;4.43;;;3.33;;
14294;SDS011;7231;59.370;18.016;2022-09-16T05:21:47;4.45;;;2.92;;
14294;SDS011;7231;59.370;18.016;2022-09-16T05:24:15;3.72;;;2.75;;
14294;SDS011;7231;59.370;18.016;2022-09-16T05:26:43;4.75;;;2.63;;
14294;SDS011;7231;59.370;18.016;2022-09-16T05:29:11;2.78;;;2.58;;
14294;SDS011;7231;59.370;18.016;2022-09-16T05:31:43;4.70;;;2.67;;
14294;SDS011;7231;59.370;18.016;2022-09-16T05:34:15;5.32;;;2.63;;
14294;SDS011;7231;59.370;18.016;2022-09-16T05:36:44;3.70;;;2.38;;
14294;SDS011;7231;59.370;18.016;2022-09-16T05:39:15;3.15;;;2.78;;
14294;SDS011;7231;59.370;18.016;2022-09-16T05:41:51;5.43;;;3.05;;
14294;SDS011;7231;59.370;18.016;2022-09-16T05:44:21;3.33;;;2.50;;
14294;SDS011;7231;59.370;18.016;2022-09-16T05:46:49;3.20;;;2.80;;
14294;SDS011;7231;59.370;18.016;2022-09-16T05:49:18;7.00;;;2.40;;
14294;SDS011;7231;59.370;18.016;2022-09-16T05:51:47;2.47;;;2.28;;
14294;SDS011;7231;59.370;18.016;2022-09-16T05:54:16;2.80;;;2.25;;
14294;SDS011;7231;59.370;18.016;2022-09-16T05:56:44;4.43;;;1.98;;
14294;SDS011;7231;59.370;18.016;2022-09-16T05:59:13;2.40;;;2.20;;
14294;SDS011;7231;59.370;18.016;2022-09-16T06:01:42;2.83;;;1.90;;
14294;SDS011;7231;59.370;18.016;2022-09-16T06:04:13;2.63;;;1.88;;
14294;SDS011;7231;59.370;18.016;2022-09-16T06:06:44;2.08;;;1.77;;
14294;SDS011;7231;59.370;18.016;2022-09-16T06:09:13;1.63;;;1.42;;
14294;SDS011;7231;59.370;18.016;2022-09-16T06:11:43;2.38;;;1.77;;
14294;SDS011;7231;59.370;18.016;2022-09-16T06:14:12;1.52;;;1.42;;
14294;SDS011;7231;59.370;18.016;2022-09-16T06:16:41;1.70;;;1.60;;
14294;SDS011;7231;59.370;18.016;2022-09-16T06:19:10;3.33;;;1.42;;
14294;SDS011;7231;59.370;18.016;2022-09-16T06:21:40;1.75;;;1.10;;
14294;SDS011;7231;59.370;18.016;2022-09-16T06:24:10;1.15;;;1.00;;
14294;SDS011;7231;59.370;18.016;2022-09-16T06:26:40;1.23;;;1.02;;
14294;SDS011;7231;59.370;18.016;2022-09-16T06:29:09;0.95;;;0.95;;
14294;SDS011;7231;59.370;18.016;2022-09-16T06:31:40;1.27;;;1.10;;
14294;SDS011;7231;59.370;18.016;2022-09-16T06:34:10;1.02;;;0.93;;
14294;SDS011;7231;59.370;18.016;2022-09-16T06:36:41;1.40;;;1.00;;
14294;SDS011;7231;59.370;18.016;2022-09-16T06:39:12;2.40;;;1.10;;
14294;SDS011;7231;59.370;18.016;2022-09-16T06:41:42;2.70;;;0.90;;
14294;SDS011;7231;59.370;18.016;2022-09-16T06:44:10;0.80;;;0.80;;
14294;SDS011;7231;59.370;18.016;2022-09-16T06:46:38;1.50;;;1.13;;
14294;SDS011;7231;59.370;18.016;2022-09-16T06:49:06;0.75;;;0.70;;
14294;SDS011;7231;59.370;18.016;2022-09-16T06:51:36;1.00;;;0.90;;
14294;SDS011;7231;59.370;18.016;2022-09-16T06:54:04;1.98;;;1.00;;
14294;SDS011;7231;59.370;18.016;2022-09-16T06:56:35;0.82;;;0.63;;
14294;SDS011;7231;59.370;18.016;2022-09-16T06:59:05;2.67;;;0.85;;
14294;SDS011;7231;59.370;18.016;2022-09-16T07:01:34;1.38;;;0.80;;
14294;SDS011;7231;59.370;18.016;2022-09-16T07:04:02;2.13;;;1.02;;
14294;SDS011;7231;59.370;18.016;2022-09-16T07:06:32;0.70;;;0.70;;
14294;SDS011;7231;59.370;18.016;2022-09-16T07:09:20;0.95;;;0.85;;
14294;SDS011;7231;59.370;18.016;2022-09-16T07:11:50;0.80;;;0.70;;
14294;SDS011;7231;59.370;18.016;2022-09-16T07:14:18;1.60;;;1.00;;
14294;SDS011;7231;59.370;18.016;2022-09-16T07:16:46;1.45;;;0.80;;
14294;SDS011;7231;59.370;18.016;2022-09-16T07:19:14;1.13;;;0.80;;
14294;SDS011;7231;59.370;18.016;2022-09-16T07:21:42;1.35;;;1.20;;
14294;SDS011;7231;59.370;18.016;2022-09-16T07:24:11;2.45;;;0.80;;
14294;SDS011;7231;59.370;18.016;2022-09-16T07:26:40;1.25;;;0.98;;
14294;SDS011;7231;59.370;18.016;2022-09-16T07:29:12;2.45;;;0.90;;
14294;SDS011;7231;59.370;18.016;2022-09-16T07:31:41;1.05;;;0.98;;
14294;SDS011;7231;59.370;18.016;2022-09-16T07:34:09;0.80;;;0.75;;
14294;SDS011;7231;59.370;18.016;2022-09-16T07:36:39;1.75;;;0.82;;
14294;SDS011;7231;59.370;18.016;2022-09-16T07:39:08;2.85;;;1.00;;
14294;SDS011;7231;59.370;18.016;2022-09-16T07:41:38;1.33;;;0.88;;
14294;SDS011;7231;59.370;18.016;2022-09-16T07:44:09;0.77;;;0.70;;
14294;SDS011;7231;59.370;18.016;2022-09-16T07:46:40;1.40;;;0.93;;
14294;SDS011;7231;59.370;18.016;2022-09-16T07:49:10;1.25;;;0.82;;
14294;SDS011;7231;59.370;18.016;2022-09-16T07:51:40;0.95;;;0.80;;
14294;SDS011;7231;59.370;18.016;2022-09-16T07:54:11;1.00;;;0.70;;
14294;SDS011;7231;59.370;18.016;2022-09-16T07:56:41;0.63;;;0.63;;
14294;SDS011;7231;59.370;18.016;2022-09-16T07:59:12;0.70;;;0.70;;
14294;SDS011;7231;59.370;18.016;2022-09-16T08:01:44;0.90;;;0.60;;
14294;SDS011;7231;59.370;18.016;2022-09-16T08:04:15;0.98;;;0.85;;
14294;SDS011;7231;59.370;18.016;2022-09-16T08:06:43;1.30;;;0.82;;
14294;SDS011;7231;59.370;18.016;2022-09-16T08:09:11;2.92;;;1.08;;
14294;SDS011;7231;59.370;18.016;2022-09-16T08:12:01;2.03;;;1.30;;
14294;SDS011;7231;59.370;18.016;2022-09-16T08:17:01;0.57;;;0.57;;
14294;SDS011;7231;59.370;18.016;2022-09-16T08:19:29;0.65;;;0.60;;
14294;SDS011;7231;59.370;18.016;2022-09-16T08:21:57;1.00;;;0.82;;
14294;SDS011;7231;59.370;18.016;2022-09-16T08:24:25;1.00;;;0.70;;
14294;SDS011;7231;59.370;18.016;2022-09-16T08:26:52;1.17;;;0.90;;
14294;SDS011;7231;59.370;18.016;2022-09-16T08:29:26;1.75;;;0.73;;
14294;SDS011;7231;59.370;18.016;2022-09-16T08:31:56;0.60;;;0.60;;
14294;SDS011;7231;59.370;18.016;2022-09-16T08:34:24;0.63;;;0.40;;
14294;SDS011;7231;59.370;18.016;2022-09-16T08:36:52;1.15;;;0.70;;
14294;SDS011;7231;59.370;18.016;2022-09-16T08:39:20;0.50;;;0.47;;
14294;SDS011;7231;59.370;18.016;2022-09-16T08:44:57;0.63;;;0.52;;
14294;SDS011;7231;59.370;18.016;2022-09-16T08:47:38;0.47;;;0.47;;
14294;SDS011;7231;59.370;18.016;2022-09-16T08:50:16;1.40;;;0.60;;
14294;SDS011;7231;59.370;18.016;2022-09-16T08:52:52;1.20;;;0.65;;
14294;SDS011;7231;59.370;18.016;2022-09-16T08:55:25;1.45;;;0.70;;
14294;SDS011;7231;59.370;18.016;2022-09-16T08:58:04;1.23;;;0.63;;
14294;SDS011;7231;59.370;18.016;2022-09-16T09:00:37;1.20;;;1.00;;
14294;SDS011;7231;59.370;18.016;2022-09-16T09:03:12;1.08;;;0.70;;
14294;SDS011;7231;59.370;18.016;2022-09-16T09:05:48;0.95;;;0.80;;
14294;SDS011;7231;59.370;18.016;2022-09-16T09:08:31;2.83;;;0.73;;
14294;SDS011;7231;59.370;18.016;2022-09-16T09:11:08;0.68;;;0.63;;
14294;SDS011;7231;59.370;18.016;2022-09-16T09:13:47;1.63;;;0.88;;
14294;SDS011;7231;59.370;18.016;2022-09-16T09:16:25;0.75;;;0.70;;
14294;SDS011;7231;59.370;18.016;2022-09-16T09:19:07;0.60;;;0.60;;
14294;SDS011;7231;59.370;18.016;2022-09-16T09:21:44;2.65;;;0.63;;
14294;SDS011;7231;59.370;18.016;2022-09-16T09:24:29;0.70;;;0.60;;
14294;SDS011;7231;59.370;18.016;2022-09-16T09:27:07;0.77;;;0.60;;
14294;SDS011;7231;59.370;18.016;2022-09-16T09:29:47;2.15;;;0.70;;
14294;SDS011;7231;59.370;18.016;2022-09-16T09:32:26;1.65;;;0.68;;
14294;SDS011;7231;59.370;18.016;2022-09-16T09:35:20;0.73;;;0.60;;
14294;SDS011;7231;59.370;18.016;2022-09-16T09:38:02;0.75;;;0.68;;
14294;SDS011;7231;59.370;18.016;2022-09-16T09:40:57;3.00;;;0.50;;
14294;SDS011;7231;59.370;18.016;2022-09-16T09:43:34;1.23;;;0.57;;
14294;SDS011;7231;59.370;18.016;2022-09-16T09:46:11;0.73;;;0.60;;
14294;SDS011;7231;59.370;18.016;2022-09-16T09:48:45;1.73;;;0.60;;
14294;SDS011;7231;59.370;18.016;2022-09-16T09:51:19;0.98;;;0.52;;
14294;SDS011;7231;59.370;18.016;2022-09-16T09:53:51;1.48;;;0.50;;
14294;SDS011;7231;59.370;18.016;2022-09-16T09:56:24;3.33;;;0.50;;
14294;SDS011;7231;59.370;18.016;2022-09-16T09:58:58;0.73;;;0.60;;
14294;SDS011;7231;59.370;18.016;2022-09-16T10:01:35;1.17;;;0.70;;
14294;SDS011;7231;59.370;18.016;2022-09-16T10:04:04;0.70;;;0.70;;
14294;SDS011;7231;59.370;18.016;2022-09-16T10:06:40;0.82;;;0.70;;
14294;SDS011;7231;59.370;18.016;2022-09-16T10:09:09;1.00;;;0.60;;
14294;SDS011;7231;59.370;18.016;2022-09-16T10:11:45;2.25;;;0.75;;
14294;SDS011;7231;59.370;18.016;2022-09-16T10:14:21;1.05;;;0.68;;
14294;SDS011;7231;59.370;18.016;2022-09-16T10:16:51;3.35;;;0.75;;
14294;SDS011;7231;59.370;18.016;2022-09-16T10:19:20;3.75;;;0.70;;
14294;SDS011;7231;59.370;18.016;2022-09-16T10:21:52;2.15;;;0.60;;
14294;SDS011;7231;59.370;18.016;2022-09-16T10:24:26;3.22;;;0.50;;
14294;SDS011;7231;59.370;18.016;2022-09-16T10:26:58;1.33;;;0.60;;
14294;SDS011;7231;59.370;18.016;2022-09-16T10:29:27;2.95;;;0.57;;
14294;SDS011;7231;59.370;18.016;2022-09-16T10:31:55;1.60;;;0.68;;
14294;SDS011;7231;59.370;18.016;2022-09-16T10:34:30;0.93;;;0.57;;
14294;SDS011;7231;59.370;18.016;2022-09-16T10:37:02;1.67;;;0.60;;
14294;SDS011;7231;59.370;18.016;2022-09-16T10:39:41;1.88;;;0.73;;
14294;SDS011;7231;59.370;18.016;2022-09-16T10:42:14;3.38;;;0.90;;
14294;SDS011;7231;59.370;18.016;2022-09-16T10:44:45;1.98;;;0.43;;
14294;SDS011;7231;59.370;18.016;2022-09-16T10:47:15;0.80;;;0.50;;
14294;SDS011;7231;59.370;18.016;2022-09-16T10:49:47;0.80;;;0.60;;
14294;SDS011;7231;59.370;18.016;2022-09-16T10:52:20;1.00;;;0.65;;
14294;SDS011;7231;59.370;18.016;2022-09-16T10:54:49;0.65;;;0.50;;
14294;SDS011;7231;59.370;18.016;2022-09-16T10:57:19;0.50;;;0.50;;
14294;SDS011;7231;59.370;18.016;2022-09-16T10:59:59;0.75;;;0.40;;
14294;SDS011;7231;59.370;18.016;2022-09-16T11:02:51;0.38;;;0.38;;
14294;SDS011;7231;59.370;18.016;2022-09-16T11:05:31;0.47;;;0.35;;
14294;SDS011;7231;59.370;18.016;2022-09-16T11:08:09;0.60;;;0.40;;
14294;SDS011;7231;59.370;18.016;2022-09-16T11:10:43;0.45;;;0.40;;
14294;SDS011;7231;59.370;18.016;2022-09-16T11:13:19;0.30;;;0.30;;
14294;SDS011;7231;59.370;18.016;2022-09-16T11:16:15;0.77;;;0.40;;
14294;SDS011;7231;59.370;18.016;2022-09-16T11:19:00;0.32;;;0.30;;
14294;SDS011;7231;59.370;18.016;2022-09-16T11:21:44;1.75;;;0.38;;
14294;SDS011;7231;59.370;18.016;2022-09-16T11:24:42;0.60;;;0.30;;
14294;SDS011;7231;59.370;18.016;2022-09-16T11:27:21;1.27;;;0.30;;
14294;SDS011;7231;59.370;18.016;2022-09-16T11:30:00;2.95;;;0.50;;
14294;SDS011;7231;59.370;18.016;2022-09-16T11:32:40;1.98;;;0.40;;
14294;SDS011;7231;59.370;18.016;2022-09-16T11:35:43;1.67;;;0.50;;
14294;SDS011;7231;59.370;18.016;2022-09-16T11:38:30;2.20;;;0.50;;
14294;SDS011;7231;59.370;18.016;2022-09-16T11:41:14;1.17;;;0.32;;
14294;SDS011;7231;59.370;18.016;2022-09-16T11:43:52;2.60;;;0.55;;
14294;SDS011;7231;59.370;18.016;2022-09-16T11:46:31;1.67;;;0.70;;
14294;SDS011;7231;59.370;18.016;2022-09-16T11:49:10;2.75;;;0.60;;
14294;SDS011;7231;59.370;18.016;2022-09-16T11:51:53;2.08;;;0.70;;
14294;SDS011;7231;59.370;18.016;2022-09-16T11:54:34;3.92;;;1.10;;
14294;SDS011;7231;59.370;18.016;2022-09-16T11:57:15;2.30;;;0.80;;
14294;SDS011;7231;59.370;18.016;2022-09-16T11:59:47;2.90;;;1.08;;
14294;SDS011;7231;59.370;18.016;2022-09-16T12:02:21;4.38;;;0.93;;
14294;SDS011;7231;59.370;18.016;2022-09-16T12:04:55;3.53;;;1.10;;
14294;SDS011;7231;59.370;18.016;2022-09-16T12:07:30;7.15;;;1.77;;
14294;SDS011;7231;59.370;18.016;2022-09-16T12:10:04;6.38;;;0.80;;
14294;SDS011;7231;59.370;18.016;2022-09-16T12:12:50;2.67;;;0.80;;
14294;SDS011;7231;59.370;18.016;2022-09-16T12:15:24;3.05;;;0.68;;
14294;SDS011;7231;59.370;18.016;2022-09-16T12:17:56;4.30;;;1.00;;
14294;SDS011;7231;59.370;18.016;2022-09-16T12:20:29;1.55;;;0.60;;
14294;SDS011;7231;59.370;18.016;2022-09-16T12:23:03;3.40;;;0.60;;
14294;SDS011;7231;59.370;18.016;2022-09-16T12:25:37;1.85;;;0.60;;
14294;SDS011;7231;59.370;18.016;2022-09-16T12:28:14;0.68;;;0.32;;
14294;SDS011;7231;59.370;18.016;2022-09-16T12:30:48;1.15;;;0.47;;
14294;SDS011;7231;59.370;18.016;2022-09-16T12:33:25;1.17;;;0.35;;
14294;SDS011;7231;59.370;18.016;2022-09-16T12:36:00;1.65;;;0.40;;
14294;SDS011;7231;59.370;18.016;2022-09-16T12:38:32;2.45;;;0.52;;
14294;SDS011;7231;59.370;18.016;2022-09-16T12:41:06;3.28;;;0.63;;
14294;SDS011;7231;59.370;18.016;2022-09-16T12:44:00;2.17;;;0.50;;
14294;SDS011;7231;59.370;18.016;2022-09-16T12:47:07;0.50;;;0.40;;
14294;SDS011;7231;59.370;18.016;2022-09-16T12:53:09;1.15;;;0.47;;
14294;SDS011;7231;59.370;18.016;2022-09-16T12:56:04;0.28;;;0.20;;
14294;SDS011;7231;59.370;18.016;2022-09-16T12:58:48;0.68;;;0.40;;
14294;SDS011;7231;59.370;18.016;2022-09-16T13:01:34;0.28;;;0.20;;
14294;SDS011;7231;59.370;18.016;2022-09-16T13:04:07;0.38;;;0.38;;
14294;SDS011;7231;59.370;18.016;2022-09-16T13:06:43;1.10;;;0.40;;
14294;SDS011;7231;59.370;18.016;2022-09-16T13:09:18;0.65;;;0.25;;
14294;SDS011;7231;59.370;18.016;2022-09-16T13:11:53;0.93;;;0.30;;
14294;SDS011;7231;59.370;18.016;2022-09-16T13:14:44;1.08;;;0.20;;
14294;SDS011;7231;59.370;18.016;2022-09-16T13:17:14;0.38;;;0.20;;
14294;SDS011;7231;59.370;18.016;2022-09-16T13:19:55;0.60;;;0.20;;
14294;SDS011;7231;59.370;18.016;2022-09-16T13:22:30;1.75;;;0.28;;
14294;SDS011;7231;59.370;18.016;2022-09-16T13:25:07;1.02;;;0.30;;
14294;SDS011;7231;59.370;18.016;2022-09-16T13:27:39;0.40;;;0.20;;
14294;SDS011;7231;59.370;18.016;2022-09-16T13:30:30;1.27;;;0.50;;
14294;SDS011;7231;59.370;18.016;2022-09-16T13:33:01;0.30;;;0.20;;
14294;SDS011;7231;59.370;18.016;2022-09-16T13:36:01;0.47;;;0.30;;
14294;SDS011;7231;59.370;18.016;2022-09-16T13:38:40;0.20;;;0.20;;
14294;SDS011;7231;59.370;18.016;2022-09-16T13:41:10;0.70;;;0.50;;
14294;SDS011;7231;59.370;18.016;2022-09-16T13:43:50;0.75;;;0.40;;
14294;SDS011;7231;59.370;18.016;2022-09-16T13:46:28;0.43;;;0.25;;
14294;SDS011;7231;59.370;18.016;2022-09-16T13:49:17;1.42;;;0.40;;
14294;SDS011;7231;59.370;18.016;2022-09-16T13:51:49;0.90;;;0.30;;
14294;SDS011;7231;59.370;18.016;2022-09-16T13:54:24;0.40;;;0.30;;
14294;SDS011;7231;59.370;18.016;2022-09-16T14:00:03;0.40;;;0.30;;
14294;SDS011;7231;59.370;18.016;2022-09-16T14:05:48;0.30;;;0.30;;
14294;SDS011;7231;59.370;18.016;2022-09-16T14:08:30;0.52;;;0.45;;
14294;SDS011;7231;59.370;18.016;2022-09-16T14:11:07;0.77;;;0.70;;
14294;SDS011;7231;59.370;18.016;2022-09-16T14:13:42;0.43;;;0.40;;
14294;SDS011;7231;59.370;18.016;2022-09-16T14:16:14;0.50;;;0.50;;
14294;SDS011;7231;59.370;18.016;2022-09-16T14:18:48;0.52;;;0.50;;
14294;SDS011;7231;59.370;18.016;2022-09-16T14:21:21;0.80;;;0.60;;
14294;SDS011;7231;59.370;18.016;2022-09-16T14:23:51;0.32;;;0.32;;
14294;SDS011;7231;59.370;18.016;2022-09-16T14:26:24;0.40;;;0.40;;
14294;SDS011;7231;59.370;18.016;2022-09-16T14:29:00;0.50;;;0.50;;
14294;SDS011;7231;59.370;18.016;2022-09-16T14:31:29;1.30;;;0.40;;
14294;SDS011;7231;59.370;18.016;2022-09-16T14:34:00;0.88;;;0.50;;
14294;SDS011;7231;59.370;18.016;2022-09-16T14:36:34;1.75;;;0.50;;
14294;SDS011;7231;59.370;18.016;2022-09-16T14:39:08;0.20;;;0.20;;
14294;SDS011;7231;59.370;18.016;2022-09-16T14:41:39;0.95;;;0.68;;
14294;SDS011;7231;59.370;18.016;2022-09-16T14:44:15;0.52;;;0.40;;
14294;SDS011;7231;59.370;18.016;2022-09-16T14:46:51;0.35;;;0.35;;
14294;SDS011;7231;59.370;18.016;2022-09-16T14:49:34;0.40;;;0.40;;
14294;SDS011;7231;59.370;18.016;2022-09-16T14:52:13;1.38;;;0.68;;
14294;SDS011;7231;59.370;18.016;2022-09-16T14:54:45;0.47;;;0.40;;
14294;SDS011;7231;59.370;18.016;2022-09-16T14:57:14;0.45;;;0.45;;
14294;SDS011;7231;59.370;18.016;2022-09-16T14:59:45;0.60;;;0.50;;
14294;SDS011;7231;59.370;18.016;2022-09-16T15:02:14;0.60;;;0.60;;
14294;SDS011;7231;59.370;18.016;2022-09-16T15:04:47;0.50;;;0.50;;
14294;SDS011;7231;59.370;18.016;2022-09-16T15:07:21;0.80;;;0.50;;
14294;SDS011;7231;59.370;18.016;2022-09-16T15:09:52;0.77;;;0.50;;
14294;SDS011;7231;59.370;18.016;2022-09-16T15:12:28;0.57;;;0.50;;
14294;SDS011;7231;59.370;18.016;2022-09-16T15:15:01;1.17;;;0.50;;
14294;SDS011;7231;59.370;18.016;2022-09-16T15:17:31;0.50;;;0.50;;
14294;SDS011;7231;59.370;18.016;2022-09-16T15:19:59;0.75;;;0.50;;
14294;SDS011;7231;59.370;18.016;2022-09-16T15:22:29;0.50;;;0.50;;
14294;SDS011;7231;59.370;18.016;2022-09-16T15:25:00;0.60;;;0.50;;
14294;SDS011;7231;59.370;18.016;2022-09-16T15:27:28;1.02;;;0.45;;
14294;SDS011;7231;59.370;18.016;2022-09-16T15:29:58;0.50;;;0.50;;
14294;SDS011;7231;59.370;18.016;2022-09-16T15:32:31;1.02;;;0.50;;
14294;SDS011;7231;59.370;18.016;2022-09-16T15:35:21;1.30;;;0.52;;
14294;SDS011;7231;59.370;18.016;2022-09-16T15:37:51;0.75;;;0.60;;
14294;SDS011;7231;59.370;18.016;2022-09-16T15:40:21;0.93;;;0.50;;
14294;SDS011;7231;59.370;18.016;2022-09-16T15:43:03;0.70;;;0.47;;